createdAt,value
2022-09-16T00:00:53.039Z,5.63
2022-09-16T00:03:20.238Z,3.97
2022-09-16T00:05:52.829Z,6.53
2022-09-16T00:08:21.515Z,7.13
2022-09-16T00:10:48.834Z,4.55
2022-09-16T00:13:16.197Z,2.78
2022-09-16T00:15:49.067Z,7.30
2022-09-16T00:18:15.724Z,3.42
2022-09-16T00:20:47.656Z,3.28
2022-09-16T00:23:14.770Z,5.72
2022-09-16T00:25:41.638Z,4.38
2022-09-16T00:28:08.554Z,5.07
2022-09-16T00:30:35.647Z,3.28
2022-09-16T00:33:02.509Z,8.45
2022-09-16T00:35:29.264Z,4.85
2022-09-16T00:37:56.003Z,5.40
2022-09-16T00:40:23.036Z,5.15
2022-09-16T00:42:49.954Z,4.35
2022-09-16T00:45:20.855Z,4.15
2022-09-16T00:47:57.301Z,4.97
2022-09-16T00:50:37.978Z,4.47
2022-09-16T00:53:07.429Z,4.32
2022-09-16T00:55:37.081Z,5.38
2022-09-16T00:58:26.371Z,5.45
2022-09-16T01:00:53.152Z,5.22
2022-09-16T01:03:20.615Z,6.65
2022-09-16T01:05:49.035Z,3.97
2022-09-16T01:08:15.992Z,3.53
2022-09-16T01:10:43.669Z,4.03
2022-09-16T01:13:14.585Z,5.97
2022-09-16T01:15:48.241Z,3.75
2022-09-16T01:18:38.977Z,4.57
2022-09-16T01:21:14.596Z,5.65
2022-09-16T01:23:51.029Z,3.85
2022-09-16T01:26:51.855Z,5.82
2022-09-16T01:30:07.006Z,3.00
2022-09-16T01:32:46.500Z,6.22
2022-09-16T01:35:38.380Z,5.82
2022-09-16T01:38:26.118Z,7.75
2022-09-16T01:41:05.005Z,6.50
2022-09-16T01:43:50.770Z,4.85
2022-09-16T01:47:09.114Z,7.30
2022-09-16T01:49:46.789Z,6.07
2022-09-16T01:52:33.491Z,8.45
2022-09-16T01:55:15.739Z,5.30
2022-09-16T01:57:56.006Z,7.18
2022-09-16T02:00:23.172Z,8.13
2022-09-16T02:02:59.066Z,8.73
2022-09-16T02:05:37.261Z,7.68
2022-09-16T02:08:10.274Z,9.73
2022-09-16T02:10:46.925Z,8.02
2022-09-16T02:13:20.106Z,7.35
2022-09-16T02:15:51.229Z,10.35
2022-09-16T02:18:22.978Z,7.40
2022-09-16T02:20:54.235Z,10.07
2022-09-16T02:23:29.430Z,6.72
2022-09-16T02:25:58.167Z,5.18
2022-09-16T02:28:30.296Z,4.78
2022-09-16T02:31:00.412Z,6.45
2022-09-16T02:33:32.847Z,5.32
2022-09-16T02:36:02.012Z,9.40
2022-09-16T02:38:40.379Z,4.72
2022-09-16T02:41:09.736Z,8.25
2022-09-16T02:43:37.133Z,5.05
2022-09-16T02:46:20.975Z,4.65
2022-09-16T02:49:05.854Z,5.30
2022-09-16T02:51:42.297Z,5.22
2022-09-16T02:54:21.804Z,4.53
2022-09-16T02:56:48.710Z,9.20
2022-09-16T02:59:16.627Z,4.10
2022-09-16T03:01:46.234Z,4.85
2022-09-16T03:04:15.635Z,3.72
2022-09-16T03:06:43.973Z,5.32
2022-09-16T03:09:13.274Z,5.68
2022-09-16T03:11:52.331Z,7.68
2022-09-16T03:14:30.349Z,4.43
2022-09-16T03:17:05.487Z,4.63
2022-09-16T03:19:38.739Z,5.90
2022-09-16T03:22:18.823Z,5.35
2022-09-16T03:24:54.843Z,5.13
2022-09-16T03:27:41.448Z,10.10
2022-09-16T03:30:10.679Z,4.50
2022-09-16T03:32:47.550Z,3.55
2022-09-16T03:35:25.771Z,7.00
2022-09-16T03:37:58.277Z,3.80
2022-09-16T03:40:30.770Z,2.45
2022-09-16T03:42:58.690Z,6.97
2022-09-16T03:45:25.800Z,3.53
2022-09-16T03:47:53.357Z,7.43
2022-09-16T03:50:21.266Z,5.75
2022-09-16T03:52:48.279Z,5.93
2022-09-16T03:55:17.171Z,7.70
2022-09-16T03:57:44.010Z,5.20
2022-09-16T04:00:11.529Z,5.32
2022-09-16T04:02:38.548Z,6.68
2022-09-16T04:05:05.804Z,6.20
2022-09-16T04:07:33.639Z,7.45
2022-09-16T04:10:01.389Z,6.82
2022-09-16T04:12:28.630Z,9.27
2022-09-16T04:14:55.373Z,10.65
2022-09-16T04:17:22.080Z,8.40
2022-09-16T04:19:48.866Z,8.73
2022-09-16T04:22:15.628Z,9.48
2022-09-16T04:24:43.438Z,7.40
2022-09-16T04:27:10.313Z,7.57
2022-09-16T04:29:37.047Z,4.43
2022-09-16T04:32:03.767Z,7.70
2022-09-16T04:34:32.210Z,5.47
2022-09-16T04:36:59.333Z,7.57
2022-09-16T04:39:26.024Z,5.63
2022-09-16T04:41:52.657Z,6.05
2022-09-16T04:44:19.303Z,7.07
2022-09-16T04:46:45.928Z,4.47
2022-09-16T04:49:12.899Z,9.52
2022-09-16T04:51:39.967Z,6.43
2022-09-16T04:54:06.716Z,6.10
2022-09-16T04:56:33.759Z,7.93
2022-09-16T04:59:03.273Z,6.75
2022-09-16T05:01:32.751Z,5.75
2022-09-16T05:04:02.266Z,6.78
2022-09-16T05:06:35.507Z,11.48
2022-09-16T05:09:05.729Z,8.05
2022-09-16T05:11:36.683Z,7.07
2022-09-16T05:14:05.847Z,5.68
2022-09-16T05:16:33.234Z,5.20
2022-09-16T05:19:03.642Z,4.10
2022-09-16T05:21:34.508Z,5.20
2022-09-16T05:24:02.942Z,6.65
2022-09-16T05:26:32.052Z,11.75
2022-09-16T05:29:05.137Z,4.35
2022-09-16T05:31:34.490Z,6.57
2022-09-16T05:34:05.602Z,3.80
2022-09-16T05:36:34.831Z,5.90
2022-09-16T05:41:50.864Z,6.05
2022-09-16T05:44:17.960Z,4.72
2022-09-16T05:46:44.637Z,9.70
2022-09-16T05:49:11.790Z,6.78
2022-09-16T05:51:41.296Z,4.95
2022-09-16T05:54:08.090Z,6.32
2022-09-16T05:56:34.721Z,7.47
2022-09-16T05:59:02.112Z,8.52
2022-09-16T06:01:35.547Z,5.30
2022-09-16T06:06:48.122Z,6.97
2022-09-16T06:09:16.399Z,8.23
2022-09-16T06:11:45.987Z,3.97
2022-09-16T06:14:13.662Z,4.60
2022-09-16T06:16:43.569Z,4.50
2022-09-16T06:19:16.132Z,5.70
2022-09-16T06:21:44.496Z,5.78
2022-09-16T06:24:12.218Z,6.70
2022-09-16T06:26:41.689Z,8.68
2022-09-16T06:29:09.687Z,8.90
2022-09-16T06:31:37.717Z,5.47
2022-09-16T06:34:05.590Z,7.75
2022-09-16T06:36:41.507Z,6.03
2022-09-16T06:39:15.450Z,4.00
2022-09-16T06:41:42.799Z,6.63
2022-09-16T06:44:09.665Z,4.82
2022-09-16T06:46:37.069Z,7.43
2022-09-16T06:49:06.187Z,2.55
2022-09-16T06:51:34.329Z,5.03
2022-09-16T06:54:03.284Z,8.73
2022-09-16T06:56:30.243Z,6.03
2022-09-16T06:58:57.474Z,4.65
2022-09-16T07:01:27.022Z,2.65
2022-09-16T07:03:55.196Z,8.20
2022-09-16T07:06:33.456Z,4.50
2022-09-16T07:09:10.255Z,4.38
2022-09-16T07:11:36.974Z,4.30
2022-09-16T07:14:05.034Z,3.17
2022-09-16T07:16:34.102Z,5.45
2022-09-16T07:19:01.376Z,5.00
2022-09-16T07:21:30.435Z,6.68
2022-09-16T07:23:59.115Z,5.63
2022-09-16T07:26:28.518Z,4.45
2022-09-16T07:28:55.828Z,5.07
2022-09-16T07:31:25.628Z,3.67
2022-09-16T07:33:55.051Z,3.08
2022-09-16T07:36:28.258Z,5.30
2022-09-16T07:38:58.442Z,6.03
2022-09-16T07:41:27.713Z,7.63
2022-09-16T07:43:56.321Z,5.18
2022-09-16T07:46:25.281Z,6.18
2022-09-16T07:48:52.168Z,3.70
2022-09-16T07:51:22.076Z,3.63
2022-09-16T07:53:53.526Z,5.75
2022-09-16T07:56:23.066Z,6.18
2022-09-16T07:58:49.822Z,7.07
2022-09-16T08:01:17.490Z,5.50
2022-09-16T08:03:45.575Z,5.13
2022-09-16T08:06:15.353Z,6.30
2022-09-16T08:08:42.415Z,4.68
2022-09-16T08:11:12.481Z,5.90
2022-09-16T08:13:39.756Z,4.30
2022-09-16T08:16:09.075Z,4.15
2022-09-16T08:18:36.206Z,5.28
2022-09-16T08:21:10.435Z,5.38
2022-09-16T08:23:37.941Z,5.15
2022-09-16T08:26:05.639Z,4.13
2022-09-16T08:28:40.128Z,4.15
2022-09-16T08:31:19.774Z,6.03
2022-09-16T08:33:47.029Z,4.50
2022-09-16T08:36:20.439Z,2.63
2022-09-16T08:38:48.896Z,4.45
2022-09-16T08:41:15.513Z,4.50
2022-09-16T08:44:10.400Z,5.07
2022-09-16T08:46:59.713Z,2.40
2022-09-16T08:49:42.517Z,6.82
2022-09-16T08:52:23.048Z,6.82
2022-09-16T08:55:00.381Z,3.53
2022-09-16T08:57:30.457Z,3.75
2022-09-16T09:00:04.568Z,6.47
2022-09-16T09:02:57.502Z,2.72
2022-09-16T09:05:36.409Z,4.57
2022-09-16T09:08:40.318Z,4.30
2022-09-16T09:11:19.819Z,4.10
2022-09-16T09:14:24.070Z,3.97
2022-09-16T09:17:24.433Z,3.50
2022-09-16T09:20:32.504Z,2.95
2022-09-16T09:23:23.914Z,5.32
2022-09-16T09:26:05.357Z,4.68
2022-09-16T09:29:15.527Z,4.82
2022-09-16T09:31:56.221Z,4.35
2022-09-16T09:34:37.130Z,3.28
2022-09-16T09:37:35.702Z,4.57
2022-09-16T09:40:14.787Z,4.70
2022-09-16T09:42:47.831Z,5.30
2022-09-16T09:45:14.436Z,5.43
2022-09-16T09:47:58.213Z,7.97
2022-09-16T09:50:47.571Z,3.50
2022-09-16T09:53:33.344Z,8.10
2022-09-16T09:56:13.458Z,6.03
2022-09-16T09:59:02.983Z,2.58
2022-09-16T10:01:30.177Z,5.20
2022-09-16T10:03:59.988Z,6.97
2022-09-16T10:06:30.485Z,4.72
2022-09-16T10:08:59.541Z,6.93
2022-09-16T10:11:32.396Z,4.13
2022-09-16T10:14:01.004Z,4.25
2022-09-16T10:16:37.155Z,5.03
2022-09-16T10:19:09.155Z,6.72
2022-09-16T10:21:53.349Z,3.05
2022-09-16T10:24:38.576Z,4.20
2022-09-16T10:27:22.075Z,4.28
2022-09-16T10:30:03.937Z,4.28
2022-09-16T10:32:31.719Z,4.35
2022-09-16T10:34:58.458Z,3.35
2022-09-16T10:37:27.833Z,4.57
2022-09-16T10:40:02.164Z,1.95
2022-09-16T10:42:29.424Z,4.90
2022-09-16T10:45:24.341Z,4.10
2022-09-16T10:47:55.651Z,3.42
2022-09-16T10:50:23.147Z,3.00
2022-09-16T10:52:50.557Z,3.10
2022-09-16T10:55:26.905Z,3.95
2022-09-16T10:58:06.277Z,2.95
2022-09-16T11:00:45.597Z,3.67
2022-09-16T11:03:40.348Z,3.08
2022-09-16T11:06:35.676Z,5.63
2022-09-16T11:09:26.930Z,4.63
2022-09-16T11:12:32.169Z,2.55
2022-09-16T11:15:11.154Z,6.50
2022-09-16T11:18:20.106Z,3.80
2022-09-16T11:20:55.982Z,4.68
2022-09-16T11:23:48.836Z,3.17
2022-09-16T11:26:43.824Z,4.90
2022-09-16T11:29:37.936Z,5.35
2022-09-16T11:32:07.449Z,4.63
2022-09-16T11:35:00.221Z,3.03
2022-09-16T11:37:41.079Z,7.13
2022-09-16T11:40:32.404Z,4.43
2022-09-16T11:43:37.900Z,1.35
2022-09-16T11:46:23.367Z,2.17
2022-09-16T11:49:28.560Z,2.20
2022-09-16T11:52:33.032Z,2.78
2022-09-16T11:55:22.217Z,3.20
2022-09-16T11:57:55.564Z,3.50
2022-09-16T12:00:22.948Z,4.00
2022-09-16T12:02:59.511Z,4.20
2022-09-16T12:05:54.682Z,3.85
2022-09-16T12:08:50.188Z,2.95
2022-09-16T12:11:41.217Z,5.90
2022-09-16T12:14:13.888Z,5.80
2022-09-16T12:17:01.422Z,3.42
2022-09-16T12:19:53.700Z,4.85
2022-09-16T12:22:55.124Z,4.88
2022-09-16T12:25:44.220Z,3.50
2022-09-16T12:28:38.791Z,4.15
2022-09-16T12:31:30.282Z,6.07
2022-09-16T12:34:02.729Z,6.45
2022-09-16T12:36:36.958Z,6.13
2022-09-16T12:39:04.235Z,4.93
2022-09-16T12:42:07.335Z,8.35
2022-09-16T12:45:03.218Z,8.95
2022-09-16T12:47:46.901Z,6.70
2022-09-16T12:50:43.195Z,6.30
2022-09-16T12:53:46.467Z,12.02
2022-09-16T12:56:46.979Z,5.35
2022-09-16T12:59:25.892Z,5.18
2022-09-16T13:02:01.654Z,9.13
2022-09-16T13:04:37.879Z,10.25
2022-09-16T13:07:05.132Z,4.45
2022-09-16T13:09:38.789Z,9.15
2022-09-16T13:12:39.078Z,6.30
2022-09-16T13:15:06.576Z,11.30
2022-09-16T13:17:44.171Z,9.80
2022-09-16T13:23:12.107Z,7.90
2022-09-16T13:25:59.404Z,10.68
2022-09-16T13:28:39.628Z,8.10
2022-09-16T13:31:12.586Z,11.05
2022-09-16T13:33:41.369Z,10.25
2022-09-16T13:36:33.597Z,10.15
2022-09-16T13:39:06.346Z,9.70
2022-09-16T13:41:41.689Z,7.03
2022-09-16T13:44:42.080Z,7.13
2022-09-16T13:47:12.079Z,9.80
2022-09-16T13:49:51.735Z,11.60
2022-09-16T13:52:36.716Z,8.23
2022-09-16T13:55:19.700Z,8.95
2022-09-16T13:57:53.452Z,9.60
2022-09-16T14:00:32.277Z,7.88
2022-09-16T14:03:33.892Z,7.75
2022-09-16T14:06:36.322Z,8.40
2022-09-16T14:09:28.851Z,8.02
2022-09-16T14:12:04.021Z,9.52
2022-09-16T14:14:50.345Z,10.80
2022-09-16T14:17:24.214Z,8.38
2022-09-16T14:19:56.820Z,7.65
2022-09-16T14:22:26.802Z,7.85
2022-09-16T14:25:05.792Z,8.77
2022-09-16T14:27:37.396Z,5.78
2022-09-16T14:30:19.679Z,8.30
2022-09-16T14:32:48.603Z,5.32
2022-09-16T14:35:23.173Z,6.07
2022-09-16T14:38:00.742Z,7.60
2022-09-16T14:40:28.483Z,8.02
2022-09-16T14:43:01.242Z,8.30
2022-09-16T14:45:30.436Z,8.80
2022-09-16T14:48:00.397Z,5.05
2022-09-16T14:50:31.012Z,3.05
2022-09-16T14:53:04.486Z,4.88
2022-09-16T14:55:35.940Z,5.05
2022-09-16T14:58:03.611Z,4.05
2022-09-16T15:00:45.275Z,2.28
2022-09-16T15:03:18.173Z,5.00
2022-09-16T15:05:47.476Z,6.35
2022-09-16T15:08:17.685Z,5.40
2022-09-16T15:10:52.300Z,4.45
2022-09-16T15:13:22.688Z,6.38
2022-09-16T15:15:54.542Z,7.47
2022-09-16T15:18:25.311Z,5.90
2022-09-16T15:20:56.964Z,6.20
2022-09-16T15:23:27.107Z,6.05
2022-09-16T15:26:07.543Z,4.75
2022-09-16T15:28:34.201Z,7.68
2022-09-16T15:31:01.082Z,5.18
2022-09-16T15:33:34.559Z,8.43
2022-09-16T15:36:02.817Z,5.68
2022-09-16T15:38:31.410Z,4.78
2022-09-16T15:41:03.994Z,9.45
2022-09-16T15:43:39.798Z,5.32
2022-09-16T15:46:16.255Z,3.70
2022-09-16T15:48:49.667Z,6.65
2022-09-16T15:51:31.885Z,4.35
2022-09-16T15:54:22.271Z,7.25
2022-09-16T15:57:02.459Z,7.68
2022-09-16T15:59:34.983Z,6.20
2022-09-16T16:02:07.475Z,3.65
2022-09-16T16:04:34.786Z,6.00
2022-09-16T16:07:04.120Z,7.90
2022-09-16T16:09:32.252Z,5.10
2022-09-16T16:12:01.420Z,6.10
2022-09-16T16:14:33.140Z,4.80
2022-09-16T16:17:21.117Z,3.80
2022-09-16T16:19:49.905Z,3.97
2022-09-16T16:22:18.018Z,4.82
2022-09-16T16:24:45.320Z,3.85
2022-09-16T16:27:12.359Z,5.45
2022-09-16T16:29:39.825Z,5.03
2022-09-16T16:32:09.327Z,4.90
2022-09-16T16:34:39.344Z,6.38
2022-09-16T16:37:07.550Z,6.47
2022-09-16T16:39:34.982Z,5.25
2022-09-16T16:42:06.188Z,6.10
2022-09-16T16:44:33.590Z,7.95
2022-09-16T16:47:01.014Z,3.92
2022-09-16T16:49:27.626Z,6.25
2022-09-16T16:52:00.953Z,7.72
2022-09-16T16:54:28.729Z,6.03
2022-09-16T16:56:55.855Z,7.97
2022-09-16T16:59:23.631Z,5.47
2022-09-16T17:01:57.914Z,7.15
2022-09-16T17:04:25.406Z,5.18
2022-09-16T17:07:14.575Z,5.45
2022-09-16T17:09:39.234Z,5.68
2022-09-16T17:12:06.327Z,6.30
2022-09-16T17:14:33.854Z,6.55
2022-09-16T17:17:02.818Z,3.45
2022-09-16T17:19:29.424Z,2.25
2022-09-16T17:21:59.849Z,3.17
2022-09-16T17:24:26.487Z,3.38
2022-09-16T17:26:53.016Z,3.33
2022-09-16T17:29:20.171Z,5.07
2022-09-16T17:31:46.945Z,3.50
2022-09-16T17:34:15.853Z,5.05
2022-09-16T17:36:45.058Z,5.18
2022-09-16T17:39:17.761Z,3.60
2022-09-16T17:41:46.482Z,3.97
2022-09-16T17:44:14.567Z,4.35
2022-09-16T17:46:43.040Z,3.47
2022-09-16T17:49:23.763Z,3.78
2022-09-16T17:52:19.041Z,4.80
2022-09-16T17:54:45.708Z,2.92
2022-09-16T17:57:12.866Z,2.33
2022-09-16T17:59:40.939Z,4.13
2022-09-16T18:02:09.738Z,3.15
2022-09-16T18:04:36.493Z,1.63
2022-09-16T18:07:03.478Z,5.57
2022-09-16T18:09:30.078Z,2.97
2022-09-16T18:11:58.465Z,1.83
2022-09-16T18:14:25.006Z,3.10
2022-09-16T18:16:51.960Z,2.50
2022-09-16T18:19:18.879Z,5.18
2022-09-16T18:21:45.755Z,4.28
2022-09-16T18:24:13.109Z,4.45
2022-09-16T18:26:42.058Z,5.18
2022-09-16T18:29:11.762Z,4.30
2022-09-16T18:31:40.934Z,3.38
2022-09-16T18:34:07.609Z,3.60
2022-09-16T18:36:36.759Z,4.47
2022-09-16T18:39:04.895Z,4.45
2022-09-16T18:41:35.866Z,4.88
2022-09-16T18:44:07.516Z,4.95
2022-09-16T18:46:36.607Z,3.72
2022-09-16T18:49:04.137Z,4.50
2022-09-16T18:51:32.871Z,7.18
2022-09-16T18:54:03.163Z,5.60
2022-09-16T18:56:32.131Z,4.80
2022-09-16T18:59:21.134Z,10.18
2022-09-16T19:01:49.673Z,8.65
2022-09-16T19:04:21.247Z,7.68
2022-09-16T19:06:50.014Z,5.57
2022-09-16T19:09:19.163Z,5.45
2022-09-16T19:11:46.413Z,6.82
2022-09-16T19:14:14.183Z,6.30
2022-09-16T19:16:42.929Z,6.57
2022-09-16T19:19:11.523Z,9.60
2022-09-16T19:21:38.591Z,8.43
2022-09-16T19:24:07.563Z,8.25
2022-09-16T19:26:37.393Z,6.03
2022-09-16T19:29:06.778Z,8.25
2022-09-16T19:31:35.351Z,10.68
2022-09-16T19:34:02.713Z,14.75
2022-09-16T19:36:31.839Z,6.45
2022-09-16T19:38:59.386Z,8.10
2022-09-16T19:41:29.173Z,8.77
2022-09-16T19:43:59.547Z,11.57
2022-09-16T19:46:27.716Z,10.55
2022-09-16T19:48:55.054Z,9.90
2022-09-16T19:51:24.227Z,9.68
2022-09-16T19:53:52.670Z,13.35
2022-09-16T19:56:22.359Z,7.88
2022-09-16T19:58:51.083Z,7.75
2022-09-16T20:01:20.168Z,8.48
2022-09-16T20:03:49.673Z,13.50
2022-09-16T20:06:19.204Z,13.00
2022-09-16T20:08:47.534Z,8.27
2022-09-16T20:11:19.717Z,12.23
2022-09-16T20:13:55.196Z,13.18
2022-09-16T20:16:24.658Z,8.45
2022-09-16T20:18:52.299Z,12.52
2022-09-16T20:21:25.284Z,9.23
2022-09-16T20:23:53.108Z,13.20
2022-09-16T20:26:20.600Z,8.88
2022-09-16T20:28:52.413Z,9.32
2022-09-16T20:31:22.474Z,10.43
2022-09-16T20:33:50.067Z,9.48
2022-09-16T20:36:19.161Z,10.77
2022-09-16T20:38:45.930Z,15.90
2022-09-16T20:41:14.438Z,9.52
2022-09-16T20:43:41.490Z,9.38
2022-09-16T20:46:13.975Z,9.23
2022-09-16T20:48:41.286Z,8.23
2022-09-16T20:51:17.779Z,4.63
2022-09-16T20:53:51.235Z,7.18
2022-09-16T20:56:21.752Z,6.55
2022-09-16T20:58:48.576Z,6.68
2022-09-16T21:01:21.028Z,10.23
2022-09-16T21:03:51.718Z,4.95
2022-09-16T21:06:18.745Z,5.47
2022-09-16T21:08:45.565Z,9.85
2022-09-16T21:11:14.562Z,7.57
2022-09-16T21:13:43.132Z,7.25
2022-09-16T21:16:12.358Z,9.30
2022-09-16T21:18:39.922Z,9.00
2022-09-16T21:21:11.344Z,7.25
2022-09-16T21:23:38.404Z,7.25
2022-09-16T21:26:08.257Z,11.23
2022-09-16T21:28:34.991Z,9.68
2022-09-16T21:31:07.844Z,13.00
2022-09-16T21:33:35.934Z,10.55
2022-09-16T21:36:07.093Z,12.00
2022-09-16T21:38:33.814Z,13.35
2022-09-16T21:41:07.904Z,17.55
2022-09-16T21:43:39.217Z,11.57
2022-09-16T21:46:09.911Z,13.60
2022-09-16T21:48:37.521Z,11.63
2022-09-16T21:51:07.054Z,19.02
2022-09-16T21:53:37.196Z,12.02
2022-09-16T21:56:09.239Z,15.60
2022-09-16T21:58:35.877Z,16.33
2022-09-16T22:01:21.098Z,14.75
2022-09-16T22:03:59.134Z,18.42
2022-09-16T22:06:27.148Z,16.45
2022-09-16T22:08:55.475Z,16.05
2022-09-16T22:11:24.577Z,11.43
2022-09-16T22:13:51.350Z,17.75
2022-09-16T22:16:26.894Z,17.90
2022-09-16T22:18:55.560Z,19.50
2022-09-16T22:21:23.837Z,18.50
2022-09-16T22:23:50.914Z,20.60
2022-09-16T22:26:19.839Z,14.98
2022-09-16T22:28:47.476Z,19.65
2022-09-16T22:31:23.512Z,17.15
2022-09-16T22:33:51.812Z,19.75
2022-09-16T22:36:24.502Z,16.80
2022-09-16T22:38:56.979Z,26.33
2022-09-16T22:41:25.043Z,18.98
2022-09-16T22:43:53.476Z,20.23
2022-09-16T22:46:29.366Z,20.98
2022-09-16T22:48:57.546Z,19.67
2022-09-16T22:51:24.980Z,17.35
2022-09-16T22:53:51.995Z,18.73
2022-09-16T22:56:22.202Z,18.92
2022-09-16T22:58:53.416Z,17.88
2022-09-16T23:01:25.546Z,20.73
2022-09-16T23:03:55.201Z,22.05
2022-09-16T23:06:24.446Z,16.63
2022-09-16T23:08:52.907Z,19.00
2022-09-16T23:11:23.703Z,20.70
2022-09-16T23:13:52.622Z,13.98
2022-09-16T23:16:23.019Z,16.33
2022-09-16T23:18:50.703Z,21.88
2022-09-16T23:21:20.723Z,15.98
2022-09-16T23:24:00.383Z,16.00
2022-09-16T23:26:30.108Z,17.30
2022-09-16T23:28:58.889Z,19.80
2022-09-16T23:31:31.311Z,16.38
2022-09-16T23:33:58.508Z,16.63
2022-09-16T23:36:26.280Z,15.50
2022-09-16T23:38:53.941Z,12.70
2022-09-16T23:41:23.465Z,15.18
2022-09-16T23:43:50.904Z,19.25
2022-09-16T23:46:19.774Z,11.95
2022-09-16T23:48:47.517Z,21.45
2022-09-16T23:51:14.220Z,16.85
2022-09-16T23:53:42.646Z,18.00
2022-09-16T23:56:11.516Z,15.75
2022-09-16T23:58:38.609Z,14.18
